Time;durP1;ratioP1;P1;durP2;ratioP2;P2;SDS_P1;SDS_P2;PMS_P1;PMS_P2;Temp;Humidity;BMP_temperature;BMP_pressure;BME280_temperature;BME280_humidity;BME280_pressure;Samples;Min_cycle;Max_cycle;Signal;HPM_P1;HPM_P2
2021/11/15 00:02:26;;;;;;;474.10;450.97;;;9.70;99.90;;;;;;4393008;32;20136;-63
2021/11/15 00:04:53;;;;;;;447.63;425.80;;;9.70;99.90;;;;;;4389889;32;20151;-62
2021/11/15 00:07:20;;;;;;;462.27;439.87;;;9.70;99.90;;;;;;4392643;32;20171;-63
2021/11/15 00:09:47;;;;;;;450.30;428.20;;;9.70;99.90;;;;;;4392811;32;20485;-62
2021/11/15 00:12:14;;;;;;;463.53;441.20;;;9.60;99.90;;;;;;4392812;32;20159;-62
2021/11/15 00:14:44;;;;;;;450.87;429.27;;;9.70;99.90;;;;;;4385574;32;20553;-62
2021/11/15 00:17:13;;;;;;;441.83;420.60;;;9.60;99.90;;;;;;4376452;32;20596;-62
2021/11/15 00:19:40;;;;;;;471.40;448.67;;;9.60;99.90;;;;;;4382836;32;20651;-63
2021/11/15 00:22:06;;;;;;;470.23;447.30;;;9.50;99.90;;;;;;4379415;32;20167;-63
2021/11/15 00:24:33;;;;;;;456.27;434.33;;;9.60;99.90;;;;;;4377581;32;20231;-62
2021/11/15 00:27:00;;;;;;;450.33;428.37;;;9.60;99.90;;;;;;4377580;32;20138;-64
2021/11/15 00:29:27;;;;;;;460.17;437.83;;;9.60;99.90;;;;;;4376973;32;20645;-62
2021/11/15 00:31:54;;;;;;;458.40;436.23;;;9.50;99.90;;;;;;4377170;32;20207;-63
2021/11/15 00:34:24;;;;;;;442.43;421.07;;;9.60;99.90;;;;;;4377457;32;20152;-62
2021/11/15 00:36:50;;;;;;;457.00;434.90;;;9.60;99.90;;;;;;4377635;32;20161;-62
2021/11/15 00:39:17;;;;;;;451.37;429.33;;;9.60;99.90;;;;;;4376782;32;20158;-62
2021/11/15 00:41:44;;;;;;;469.23;446.13;;;9.60;99.90;;;;;;4377435;32;20230;-62
2021/11/15 00:44:11;;;;;;;466.97;444.20;;;9.60;99.90;;;;;;4377803;32;20480;-62
2021/11/15 00:46:38;;;;;;;465.77;443.43;;;9.50;99.90;;;;;;4377225;32;20216;-61
2021/11/15 00:49:06;;;;;;;461.70;439.93;;;9.60;99.90;;;;;;4376731;32;20136;-63
2021/11/15 00:51:34;;;;;;;456.57;434.43;;;9.60;99.90;;;;;;4378067;32;20212;-61
2021/11/15 00:54:01;;;;;;;456.00;433.70;;;9.50;99.90;;;;;;4378865;32;20161;-62
2021/11/15 00:56:28;;;;;;;468.40;445.97;;;9.60;99.90;;;;;;4376912;32;20242;-62
2021/11/15 00:58:55;;;;;;;454.97;432.60;;;9.60;99.90;;;;;;4371539;32;20233;-63
2021/11/15 01:01:22;;;;;;;464.40;441.70;;;9.60;99.90;;;;;;4362737;32;20171;-62
2021/11/15 01:03:49;;;;;;;451.33;429.53;;;9.60;99.90;;;;;;4363508;32;20158;-62
2021/11/15 01:06:16;;;;;;;464.17;441.90;;;9.50;99.90;;;;;;4363773;32;20161;-62
2021/11/15 01:08:44;;;;;;;446.37;424.83;;;9.60;99.90;;;;;;4375480;32;20169;-62
2021/11/15 01:11:11;;;;;;;455.50;433.97;;;9.40;99.90;;;;;;4377228;32;20499;-63
2021/11/15 01:13:39;;;;;;;440.60;419.50;;;9.50;99.90;;;;;;4376910;32;20192;-62
2021/11/15 01:16:07;;;;;;;448.20;427.10;;;9.40;99.90;;;;;;4376922;32;20166;-62
2021/11/15 01:18:35;;;;;;;447.53;426.47;;;9.50;99.90;;;;;;4377488;32;20160;-62
2021/11/15 01:21:02;;;;;;;438.40;417.27;;;9.40;99.90;;;;;;4377262;32;20154;-61
2021/11/15 01:23:29;;;;;;;451.57;429.67;;;9.30;99.90;;;;;;4377340;32;20266;-62
2021/11/15 01:25:57;;;;;;;437.73;417.00;;;9.40;99.90;;;;;;4377162;32;20466;-61
2021/11/15 01:28:24;;;;;;;428.27;408.07;;;9.40;99.90;;;;;;4376912;32;20655;-61
2021/11/15 01:30:51;;;;;;;429.20;409.03;;;9.40;99.90;;;;;;4377520;32;20551;-62
2021/11/15 01:33:18;;;;;;;448.17;426.70;;;9.40;99.90;;;;;;4372460;32;20583;-62
2021/11/15 01:35:45;;;;;;;434.83;414.23;;;9.30;99.90;;;;;;4370324;32;20175;-62
2021/11/15 01:38:12;;;;;;;447.33;426.43;;;9.40;99.90;;;;;;4377463;32;20222;-61
2021/11/15 01:40:39;;;;;;;428.53;408.47;;;9.40;99.90;;;;;;4377099;32;20195;-62
2021/11/15 01:43:07;;;;;;;412.80;393.67;;;9.30;99.90;;;;;;4376940;32;20148;-61
2021/11/15 01:45:36;;;;;;;430.37;410.13;;;9.30;99.90;;;;;;4377781;32;20165;-62
2021/11/15 01:48:09;;;;;;;424.80;404.50;;;9.30;99.90;;;;;;4376477;32;20132;-62
2021/11/15 01:50:37;;;;;;;445.50;424.23;;;9.30;99.90;;;;;;4377908;32;20140;-62
2021/11/15 01:53:05;;;;;;;417.37;397.80;;;9.30;99.90;;;;;;4376303;32;20216;-61
2021/11/15 01:55:32;;;;;;;414.83;394.87;;;9.30;99.90;;;;;;4375911;32;20259;-61
2021/11/15 01:58:03;;;;;;;402.00;383.30;;;9.20;99.90;;;;;;4376194;32;20179;-62
2021/11/15 02:00:35;;;;;;;427.57;407.37;;;9.20;99.90;;;;;;4376184;32;20217;-61
2021/11/15 02:03:02;;;;;;;415.27;395.50;;;9.20;99.90;;;;;;4376833;32;20156;-61
2021/11/15 02:05:29;;;;;;;421.87;402.20;;;9.20;99.90;;;;;;4376340;32;20159;-61
2021/11/15 02:07:56;;;;;;;449.73;428.17;;;9.20;99.90;;;;;;4377775;32;20155;-61
2021/11/15 02:10:23;;;;;;;407.83;388.80;;;9.20;99.90;;;;;;4377349;32;20142;-62
2021/11/15 02:12:50;;;;;;;446.33;425.30;;;9.20;99.90;;;;;;4377375;32;20207;-61
2021/11/15 02:15:18;;;;;;;421.63;401.77;;;9.20;99.90;;;;;;4377268;32;20144;-62
2021/11/15 02:17:48;;;;;;;422.33;402.53;;;9.20;99.90;;;;;;4378301;32;20146;-61
2021/11/15 02:20:17;;;;;;;421.00;401.00;;;9.20;99.90;;;;;;4386919;32;20231;-62
2021/11/15 02:22:45;;;;;;;431.57;411.23;;;9.10;99.90;;;;;;4390939;32;20174;-62
2021/11/15 02:25:13;;;;;;;429.47;409.00;;;9.10;99.90;;;;;;4391298;32;20163;-62
2021/11/15 02:27:40;;;;;;;427.73;407.13;;;9.10;99.90;;;;;;4383563;32;20252;-62
2021/11/15 02:30:13;;;;;;;432.13;411.90;;;9.10;99.90;;;;;;4375815;32;20147;-62
2021/11/15 02:32:40;;;;;;;423.83;403.57;;;9.10;99.90;;;;;;4377450;32;20673;-62
2021/11/15 02:35:08;;;;;;;424.20;404.10;;;9.10;99.90;;;;;;4377150;32;20215;-62
2021/11/15 02:37:37;;;;;;;440.00;418.63;;;9.10;99.90;;;;;;4373650;32;20683;-62
2021/11/15 02:40:06;;;;;;;440.87;419.87;;;9.00;99.90;;;;;;4368319;32;20154;-62
2021/11/15 02:42:33;;;;;;;428.87;408.13;;;9.10;99.90;;;;;;4375364;32;20180;-61
2021/11/15 02:45:00;;;;;;;426.83;406.40;;;9.10;99.90;;;;;;4375718;32;20220;-63
2021/11/15 02:47:30;;;;;;;454.00;432.30;;;9.10;99.90;;;;;;4377184;32;20163;-62
2021/11/15 02:49:57;;;;;;;454.97;433.07;;;9.10;99.90;;;;;;4386316;32;20227;-61
2021/11/15 02:52:24;;;;;;;439.63;418.57;;;9.00;99.90;;;;;;4390566;32;20147;-62
2021/11/15 02:54:57;;;;;;;442.90;421.67;;;9.00;99.90;;;;;;4390019;32;20189;-62
2021/11/15 02:57:26;;;;;;;424.37;403.87;;;9.00;99.90;;;;;;4390239;32;20184;-62
2021/11/15 02:59:53;;;;;;;423.67;403.27;;;9.00;99.90;;;;;;4389801;32;20638;-62
2021/11/15 03:02:23;;;;;;;444.97;423.33;;;9.00;99.90;;;;;;4391411;32;20209;-61
2021/11/15 03:04:50;;;;;;;464.67;442.23;;;8.90;99.90;;;;;;4382757;32;20214;-62
2021/11/15 03:07:17;;;;;;;464.07;441.43;;;8.90;99.90;;;;;;4360457;33;20227;-62
2021/11/15 03:09:44;;;;;;;451.60;430.43;;;9.00;99.90;;;;;;4373478;32;20181;-62
2021/11/15 03:12:12;;;;;;;436.27;415.40;;;9.00;99.90;;;;;;4376091;32;20148;-62
2021/11/15 03:14:39;;;;;;;441.33;420.07;;;9.00;99.90;;;;;;4375645;32;20160;-62
2021/11/15 03:17:06;;;;;;;435.23;414.27;;;8.90;99.90;;;;;;4376798;32;20202;-61
2021/11/15 03:19:33;;;;;;;465.53;442.90;;;8.90;99.90;;;;;;4375100;32;20659;-62
2021/11/15 03:22:00;;;;;;;467.30;444.63;;;8.90;99.90;;;;;;4376361;32;20181;-61
2021/11/15 03:24:27;;;;;;;453.93;432.03;;;8.90;99.90;;;;;;4377071;32;20638;-61
2021/11/15 03:26:58;;;;;;;446.47;424.97;;;8.90;99.90;;;;;;4375388;32;20140;-61
2021/11/15 03:29:26;;;;;;;443.40;422.10;;;9.00;99.90;;;;;;4383424;32;20209;-62
2021/11/15 03:31:53;;;;;;;449.07;427.20;;;8.90;99.90;;;;;;4389466;32;20223;-62
2021/11/15 03:34:20;;;;;;;456.13;434.40;;;8.90;99.90;;;;;;4389971;32;20215;-62
2021/11/15 03:36:47;;;;;;;454.57;433.07;;;8.90;99.90;;;;;;4390075;32;20236;-61
2021/11/15 03:39:16;;;;;;;483.63;459.83;;;8.90;99.90;;;;;;4390555;32;20158;-62
2021/11/15 03:41:45;;;;;;;448.13;426.40;;;8.90;99.90;;;;;;4390210;32;20575;-61
2021/11/15 03:44:16;;;;;;;450.87;428.60;;;8.90;99.90;;;;;;4376632;32;20497;-61
2021/11/15 03:46:44;;;;;;;447.20;425.73;;;9.00;99.90;;;;;;4375711;32;20261;-61
2021/11/15 03:49:14;;;;;;;448.73;427.17;;;8.90;99.90;;;;;;4375220;32;20137;-61
2021/11/15 03:51:42;;;;;;;455.20;433.03;;;8.90;99.90;;;;;;4382952;32;20162;-61
2021/11/15 03:54:09;;;;;;;477.80;454.37;;;8.90;99.90;;;;;;4374046;32;20151;-62
2021/11/15 03:56:36;;;;;;;465.93;443.50;;;8.80;99.90;;;;;;4361921;32;20219;-61
2021/11/15 03:59:06;;;;;;;476.00;452.83;;;8.90;99.90;;;;;;4360750;33;20215;-61
2021/11/15 04:01:34;;;;;;;461.70;439.43;;;8.90;99.90;;;;;;4372129;32;20573;-61
2021/11/15 04:04:05;;;;;;;454.23;432.30;;;8.90;99.90;;;;;;4376140;32;20176;-62
2021/11/15 04:06:38;;;;;;;461.93;439.63;;;8.90;99.90;;;;;;4376814;32;20142;-61
2021/11/15 04:09:08;;;;;;;439.67;418.83;;;8.90;99.90;;;;;;4377868;32;20162;-62
2021/11/15 04:11:37;;;;;;;450.97;429.50;;;8.90;99.90;;;;;;4377413;32;20542;-62
2021/11/15 04:14:08;;;;;;;476.80;454.20;;;8.90;99.90;;;;;;4378364;32;20179;-63
2021/11/15 04:16:35;;;;;;;469.70;446.57;;;8.90;99.90;;;;;;4362761;33;20159;-61
2021/11/15 04:19:07;;;;;;;447.37;426.17;;;9.10;99.90;;;;;;4362690;33;20220;-61
2021/11/15 04:21:35;;;;;;;445.87;424.53;;;8.90;99.90;;;;;;4366468;32;20236;-62
2021/11/15 04:24:02;;;;;;;471.67;449.20;;;8.90;99.90;;;;;;4372623;32;20577;-62
2021/11/15 04:26:28;;;;;;;479.50;456.00;;;8.80;99.90;;;;;;4370833;32;20141;-61
2021/11/15 04:28:56;;;;;;;449.07;427.53;;;8.80;99.90;;;;;;4364964;32;20567;-61
2021/11/15 04:31:23;;;;;;;467.03;444.43;;;8.80;99.90;;;;;;4363984;32;20167;-62
2021/11/15 04:33:50;;;;;;;465.70;443.10;;;8.80;99.90;;;;;;4377553;32;20168;-62
2021/11/15 04:36:18;;;;;;;459.70;436.67;;;8.80;99.90;;;;;;4377411;32;20141;-62
2021/11/15 04:38:45;;;;;;;470.80;447.40;;;8.80;99.90;;;;;;4377404;32;20165;-62
2021/11/15 04:41:12;;;;;;;483.37;459.80;;;8.80;99.90;;;;;;4377467;32;20208;-62
2021/11/15 04:43:38;;;;;;;473.93;450.93;;;8.80;99.90;;;;;;4377174;32;20168;-62
2021/11/15 04:46:05;;;;;;;481.17;457.47;;;8.80;99.90;;;;;;4377875;32;20174;-61
2021/11/15 04:48:34;;;;;;;493.40;469.13;;;8.80;99.90;;;;;;4362708;32;20235;-62
2021/11/15 04:51:01;;;;;;;463.77;441.00;;;8.80;99.90;;;;;;4364890;32;20207;-62
2021/11/15 04:53:29;;;;;;;476.90;453.50;;;8.80;99.90;;;;;;4384912;32;20242;-61
2021/11/15 04:55:57;;;;;;;436.47;415.03;;;8.80;99.90;;;;;;4393980;32;20148;-61
2021/11/15 04:58:23;;;;;;;465.97;443.03;;;8.80;99.90;;;;;;4393815;32;20134;-62
2021/11/15 05:00:51;;;;;;;461.30;438.73;;;8.80;99.90;;;;;;4392268;32;20174;-61
2021/11/15 05:03:20;;;;;;;439.13;417.80;;;8.80;99.90;;;;;;4390206;32;20167;-62
2021/11/15 05:05:47;;;;;;;464.47;441.27;;;8.70;99.90;;;;;;4393926;32;20136;-62
2021/11/15 05:08:14;;;;;;;461.27;438.57;;;8.70;99.90;;;;;;4393194;32;20136;-61
2021/11/15 05:10:43;;;;;;;446.43;424.60;;;8.80;99.90;;;;;;4391973;32;20255;-61
2021/11/15 05:13:10;;;;;;;452.93;430.63;;;8.80;99.90;;;;;;4386683;32;20222;-61
2021/11/15 05:15:36;;;;;;;443.73;422.47;;;8.70;99.90;;;;;;4379946;32;20178;-62
2021/11/15 05:18:03;;;;;;;437.60;416.83;;;8.80;99.90;;;;;;4391287;32;20219;-61
2021/11/15 05:20:30;;;;;;;447.93;425.83;;;8.80;99.90;;;;;;4392228;32;20221;-61
2021/11/15 05:22:57;;;;;;;442.23;421.00;;;8.70;99.90;;;;;;4392374;32;20145;-62
2021/11/15 05:25:25;;;;;;;449.00;427.17;;;8.70;99.90;;;;;;4391928;32;20494;-61
2021/11/15 05:27:54;;;;;;;452.10;429.97;;;8.60;99.90;;;;;;4392579;32;20171;-61
2021/11/15 05:30:22;;;;;;;458.57;436.27;;;8.70;99.90;;;;;;4393061;32;20263;-61
2021/11/15 05:32:51;;;;;;;447.73;425.60;;;8.70;99.90;;;;;;4392538;32;20138;-61
2021/11/15 05:35:19;;;;;;;440.40;419.27;;;8.70;99.90;;;;;;4388011;32;20233;-61
2021/11/15 05:37:45;;;;;;;462.73;439.60;;;8.60;99.90;;;;;;4393328;32;20167;-61
2021/11/15 05:40:14;;;;;;;478.40;455.10;;;8.60;99.90;;;;;;4391335;32;20219;-62
2021/11/15 05:42:41;;;;;;;464.93;441.93;;;8.60;99.90;;;;;;4392619;32;20154;-61
2021/11/15 05:45:11;;;;;;;435.93;414.87;;;8.70;99.90;;;;;;4385892;32;20530;-61
2021/11/15 05:47:40;;;;;;;437.03;415.87;;;8.70;99.90;;;;;;4376471;32;20183;-62
2021/11/15 05:50:10;;;;;;;465.03;442.30;;;8.70;99.90;;;;;;4376680;32;20145;-61
2021/11/15 05:52:40;;;;;;;440.27;418.43;;;8.70;99.90;;;;;;4376398;32;20562;-62
2021/11/15 05:55:08;;;;;;;452.90;431.10;;;8.70;99.90;;;;;;4376134;32;20207;-61
2021/11/15 05:57:35;;;;;;;452.00;430.20;;;8.70;99.90;;;;;;4376333;32;20544;-61
2021/11/15 06:00:01;;;;;;;444.13;422.47;;;8.70;99.90;;;;;;4372985;32;20232;-61
2021/11/15 06:02:30;;;;;;;466.20;443.30;;;8.70;99.90;;;;;;4374986;32;20166;-61
2021/11/15 06:04:56;;;;;;;452.07;430.03;;;8.60;99.90;;;;;;4376293;32;20227;-61
2021/11/15 06:07:23;;;;;;;470.07;447.10;;;8.60;99.90;;;;;;4376163;32;20163;-61
2021/11/15 06:09:50;;;;;;;468.20;445.07;;;8.60;99.90;;;;;;4375953;32;20660;-61
2021/11/15 06:12:17;;;;;;;462.10;439.07;;;8.60;99.90;;;;;;4375899;32;20148;-61
2021/11/15 06:14:44;;;;;;;453.23;430.90;;;8.60;99.90;;;;;;4375101;32;20215;-62
2021/11/15 06:17:10;;;;;;;474.07;450.67;;;8.60;99.90;;;;;;4375250;32;20652;-61
2021/11/15 06:19:39;;;;;;;464.03;441.53;;;8.60;99.90;;;;;;4374244;32;20625;-61
2021/11/15 06:22:06;;;;;;;478.27;455.10;;;8.60;99.90;;;;;;4373953;32;20165;-61
2021/11/15 06:24:33;;;;;;;459.73;437.60;;;8.60;99.90;;;;;;4374515;32;20155;-61
2021/11/15 06:27:00;;;;;;;450.23;428.27;;;8.60;99.90;;;;;;4374553;32;20238;-61
2021/11/15 06:29:27;;;;;;;478.60;454.80;;;8.50;99.90;;;;;;4373475;32;20167;-61
2021/11/15 06:31:56;;;;;;;459.10;436.40;;;8.50;99.90;;;;;;4374535;32;20150;-61
2021/11/15 06:34:22;;;;;;;465.53;442.97;;;8.60;99.90;;;;;;4374430;32;20196;-61
2021/11/15 06:36:51;;;;;;;468.97;446.13;;;8.60;99.90;;;;;;4375439;32;20223;-61
2021/11/15 06:39:17;;;;;;;434.60;412.83;;;8.60;99.90;;;;;;4374222;32;20173;-61
2021/11/15 06:41:44;;;;;;;445.43;423.63;;;8.50;99.90;;;;;;4373582;32;20229;-61
2021/11/15 06:44:11;;;;;;;438.73;417.10;;;8.60;99.90;;;;;;4375940;32;20232;-61
2021/11/15 06:46:38;;;;;;;445.30;422.77;;;8.60;99.90;;;;;;4371271;32;20489;-61
2021/11/15 06:49:05;;;;;;;455.67;433.00;;;8.60;99.90;;;;;;4373975;32;20166;-61
2021/11/15 06:51:32;;;;;;;455.43;433.23;;;8.60;99.90;;;;;;4371653;32;20179;-61
2021/11/15 06:54:00;;;;;;;438.17;416.67;;;8.50;99.90;;;;;;4371659;32;20162;-62
2021/11/15 06:56:27;;;;;;;453.23;431.27;;;8.50;99.90;;;;;;4368254;32;20232;-61
2021/11/15 06:58:54;;;;;;;447.50;425.53;;;8.50;99.90;;;;;;4369179;32;20209;-61
2021/11/15 07:01:21;;;;;;;450.47;428.23;;;8.60;99.90;;;;;;4373656;32;20666;-61
2021/11/15 07:03:47;;;;;;;420.63;400.43;;;8.50;99.90;;;;;;4372848;32;20240;-61
2021/11/15 07:06:14;;;;;;;464.73;441.97;;;8.40;99.90;;;;;;4373550;32;20160;-61
2021/11/15 07:08:41;;;;;;;460.73;438.13;;;8.50;99.90;;;;;;4373139;32;20268;-61
2021/11/15 07:11:10;;;;;;;454.97;432.57;;;8.40;99.90;;;;;;4372042;32;20195;-61
2021/11/15 07:13:36;;;;;;;454.67;432.20;;;8.50;99.90;;;;;;4372209;32;20522;-62
2021/11/15 07:16:03;;;;;;;460.20;437.57;;;8.50;99.90;;;;;;4373145;32;20184;-62
2021/11/15 07:18:32;;;;;;;446.10;424.33;;;8.50;99.90;;;;;;4370636;32;20232;-61
2021/11/15 07:20:59;;;;;;;452.43;430.47;;;8.50;99.90;;;;;;4370096;32;20673;-61
2021/11/15 07:23:26;;;;;;;456.73;434.37;;;8.50;99.90;;;;;;4370160;32;20576;-61
2021/11/15 07:25:54;;;;;;;446.93;424.43;;;8.50;99.90;;;;;;4372868;32;20167;-61
2021/11/15 07:28:22;;;;;;;457.97;435.20;;;8.50;99.90;;;;;;4372497;32;20259;-61
2021/11/15 07:30:54;;;;;;;452.30;429.73;;;8.40;99.90;;;;;;4369014;32;20189;-62
2021/11/15 07:33:22;;;;;;;473.20;449.43;;;8.40;99.90;;;;;;4373131;32;20160;-61
2021/11/15 07:35:49;;;;;;;472.73;449.17;;;8.40;99.90;;;;;;4372241;32;20172;-61
2021/11/15 07:38:16;;;;;;;473.63;450.37;;;8.50;99.90;;;;;;4374436;32;20212;-61
2021/11/15 07:40:45;;;;;;;446.53;423.80;;;8.60;99.90;;;;;;4374847;32;20210;-61
2021/11/15 07:43:14;;;;;;;448.83;426.50;;;8.50;99.90;;;;;;4377425;32;20233;-61
2021/11/15 07:45:43;;;;;;;459.23;436.90;;;8.50;99.90;;;;;;4376883;32;20175;-61
2021/11/15 07:48:10;;;;;;;460.83;438.10;;;8.60;99.90;;;;;;4373064;32;20147;-61
2021/11/15 07:50:38;;;;;;;464.60;441.53;;;8.60;99.90;;;;;;4375365;32;20183;-61
2021/11/15 07:53:05;;;;;;;460.53;438.13;;;8.50;99.90;;;;;;4376805;32;20154;-61
2021/11/15 07:55:32;;;;;;;472.83;449.03;;;8.50;99.90;;;;;;4376474;32;20591;-61
2021/11/15 07:58:02;;;;;;;467.93;444.70;;;8.60;99.90;;;;;;4375218;32;20272;-61
2021/11/15 08:00:30;;;;;;;456.53;433.63;;;8.70;99.90;;;;;;4374910;32;20150;-61
2021/11/15 08:02:58;;;;;;;455.93;433.43;;;8.70;99.90;;;;;;4375639;32;20164;-61
2021/11/15 08:05:25;;;;;;;441.33;419.83;;;8.70;99.90;;;;;;4376016;32;20227;-62
2021/11/15 08:07:52;;;;;;;460.30;437.07;;;8.70;99.90;;;;;;4375548;32;20180;-61
2021/11/15 08:10:21;;;;;;;464.27;441.17;;;8.70;99.90;;;;;;4375831;32;20170;-61
2021/11/15 08:12:50;;;;;;;458.23;435.37;;;8.70;99.90;;;;;;4377980;32;20169;-61
2021/11/15 08:15:19;;;;;;;454.73;432.07;;;8.70;99.90;;;;;;4377080;32;20161;-60
2021/11/15 08:17:48;;;;;;;452.77;430.20;;;8.70;99.90;;;;;;4375436;32;20156;-62
2021/11/15 08:20:19;;;;;;;457.83;434.93;;;8.70;99.90;;;;;;4375323;32;20270;-61
2021/11/15 08:22:49;;;;;;;440.93;419.23;;;8.60;99.90;;;;;;4374492;32;20229;-61
2021/11/15 08:26:01;;;;;;;454.33;431.90;;;8.60;99.90;;;;;;4375409;32;20624;-62
2021/11/15 08:28:29;;;;;;;443.13;421.30;;;8.60;99.90;;;;;;4376474;32;20137;-62
2021/11/15 08:30:58;;;;;;;462.93;440.20;;;8.60;99.90;;;;;;4375330;32;20239;-61
2021/11/15 08:33:25;;;;;;;460.87;438.10;;;8.60;99.90;;;;;;4376656;32;20150;-61
2021/11/15 08:35:53;;;;;;;461.50;438.50;;;8.70;99.90;;;;;;4375928;32;20219;-62
2021/11/15 08:38:44;;;;;;;459.67;437.10;;;8.70;99.90;;;;;;4375921;32;20175;-61
2021/11/15 08:41:12;;;;;;;424.57;403.70;;;8.60;99.90;;;;;;4374834;32;20217;-62
2021/11/15 08:43:39;;;;;;;475.87;452.43;;;8.60;99.90;;;;;;4375714;32;20153;-61
2021/11/15 08:46:07;;;;;;;467.93;445.50;;;8.50;99.90;;;;;;4376820;32;20165;-62
2021/11/15 08:48:35;;;;;;;437.93;416.60;;;8.60;99.90;;;;;;4376422;32;20172;-61
2021/11/15 08:51:05;;;;;;;458.30;436.47;;;8.50;99.90;;;;;;4376753;32;20218;-61
2021/11/15 08:53:32;;;;;;;455.53;433.57;;;8.50;99.90;;;;;;4375618;32;20200;-61
2021/11/15 08:55:59;;;;;;;466.63;444.17;;;8.60;99.90;;;;;;4376789;32;20137;-61
2021/11/15 08:58:26;;;;;;;443.03;421.57;;;8.50;99.90;;;;;;4375756;32;20140;-61
2021/11/15 09:00:53;;;;;;;454.60;432.47;;;8.50;99.90;;;;;;4375610;32;20238;-61
2021/11/15 09:03:20;;;;;;;441.53;420.43;;;8.50;99.90;;;;;;4376721;32;20141;-61
2021/11/15 09:05:48;;;;;;;448.97;426.97;;;8.50;99.90;;;;;;4375358;32;20148;-60
2021/11/15 09:08:17;;;;;;;452.50;430.13;;;8.60;99.90;;;;;;4376583;32;20218;-61
2021/11/15 09:10:44;;;;;;;467.40;444.43;;;8.50;99.90;;;;;;4375897;32;20202;-61
2021/11/15 09:13:11;;;;;;;449.20;427.30;;;8.50;99.90;;;;;;4376704;32;20507;-61
2021/11/15 09:15:38;;;;;;;444.90;423.50;;;8.50;99.90;;;;;;4375010;32;20143;-61
2021/11/15 09:18:05;;;;;;;463.37;440.43;;;8.50;99.90;;;;;;4376551;32;20564;-61
2021/11/15 09:20:32;;;;;;;471.97;448.87;;;8.50;99.90;;;;;;4374465;32;20175;-61
2021/11/15 09:22:59;;;;;;;458.97;436.37;;;8.50;99.90;;;;;;4374946;32;20203;-61
2021/11/15 09:25:28;;;;;;;455.60;432.83;;;8.50;99.90;;;;;;4376294;32;20183;-61
2021/11/15 09:27:54;;;;;;;462.67;440.13;;;8.60;99.90;;;;;;4370107;32;20235;-61
2021/11/15 09:30:22;;;;;;;458.77;436.10;;;8.60;99.90;;;;;;4372828;32;20366;-61
2021/11/15 09:32:48;;;;;;;435.77;414.27;;;8.70;99.90;;;;;;4373855;32;20206;-61
2021/11/15 09:35:15;;;;;;;462.40;439.47;;;8.60;99.90;;;;;;4374467;32;20156;-61
2021/11/15 09:37:44;;;;;;;457.03;434.33;;;8.60;99.90;;;;;;4383475;32;20168;-61
2021/11/15 09:40:12;;;;;;;442.17;420.37;;;8.60;99.90;;;;;;4367456;32;20586;-60
2021/11/15 09:42:41;;;;;;;436.97;415.70;;;8.70;99.90;;;;;;4389801;32;20180;-60
2021/11/15 09:45:09;;;;;;;459.37;437.13;;;8.70;99.90;;;;;;4375734;32;20148;-60
2021/11/15 09:47:38;;;;;;;454.57;432.37;;;8.60;99.90;;;;;;4382186;32;20161;-61
2021/11/15 09:50:08;;;;;;;458.23;435.77;;;8.60;99.90;;;;;;4376189;32;20225;-61
2021/11/15 09:52:35;;;;;;;462.70;440.03;;;8.60;99.90;;;;;;4378403;32;20221;-61
2021/11/15 09:55:04;;;;;;;448.97;426.57;;;8.60;99.90;;;;;;4380734;32;20182;-61
2021/11/15 09:57:31;;;;;;;439.67;418.47;;;8.60;99.90;;;;;;4377246;32;20516;-61
2021/11/15 10:00:01;;;;;;;446.40;424.73;;;8.60;99.90;;;;;;4375736;32;20186;-61
2021/11/15 10:02:28;;;;;;;457.60;434.77;;;8.60;99.90;;;;;;4375566;32;20172;-61
2021/11/15 10:04:55;;;;;;;437.73;416.23;;;8.60;99.90;;;;;;4375408;32;20148;-61
2021/11/15 10:07:36;;;;;;;448.20;425.90;;;8.60;99.90;;;;;;4374539;32;20155;-61
2021/11/15 10:10:29;;;;;;;421.37;400.70;;;8.50;99.90;;;;;;4367826;32;20169;-61
2021/11/15 10:13:20;;;;;;;452.30;429.93;;;8.50;99.90;;;;;;4371001;32;20586;-61
2021/11/15 10:16:02;;;;;;;418.17;397.40;;;8.40;99.90;;;;;;4379761;32;20168;-61
2021/11/15 10:18:52;;;;;;;444.57;422.93;;;8.40;99.90;;;;;;4382923;32;20201;-61
2021/11/15 10:21:27;;;;;;;447.30;425.33;;;8.40;99.90;;;;;;4372351;32;20157;-61
2021/11/15 10:24:00;;;;;;;450.70;427.70;;;8.40;99.90;;;;;;4375514;32;20225;-61
2021/11/15 10:26:32;;;;;;;473.83;450.20;;;8.50;99.90;;;;;;4375375;32;20206;-61
2021/11/15 10:29:03;;;;;;;431.43;409.83;;;8.60;99.90;;;;;;4377156;32;20148;-61
2021/11/15 10:31:44;;;;;;;418.23;397.77;;;8.60;99.90;;;;;;4374577;32;20582;-61
2021/11/15 10:34:13;;;;;;;445.10;422.83;;;8.60;99.90;;;;;;4376605;32;20172;-61
2021/11/15 10:36:56;;;;;;;435.80;414.27;;;8.60;99.90;;;;;;4381044;32;20153;-61
2021/11/15 10:39:27;;;;;;;427.80;406.97;;;8.60;99.90;;;;;;4375184;32;20179;-61
2021/11/15 10:42:03;;;;;;;450.47;428.50;;;8.50;99.90;;;;;;4375085;32;20152;-61
2021/11/15 10:44:31;;;;;;;429.13;407.80;;;8.50;99.90;;;;;;4376647;32;20167;-61
2021/11/15 10:47:00;;;;;;;439.73;418.57;;;8.40;99.90;;;;;;4376300;32;20174;-61
2021/11/15 10:49:27;;;;;;;435.73;414.13;;;8.40;99.90;;;;;;4377927;32;20223;-61
2021/11/15 10:51:58;;;;;;;447.70;425.90;;;8.20;99.90;;;;;;4372757;32;20183;-61
2021/11/15 10:54:49;;;;;;;440.63;419.33;;;8.20;99.90;;;;;;4376228;32;20624;-61
2021/11/15 10:57:25;;;;;;;413.87;394.57;;;8.20;99.90;;;;;;4374289;32;20182;-61
2021/11/15 11:00:21;;;;;;;441.37;420.37;;;8.20;99.90;;;;;;4376564;32;20167;-61
2021/11/15 11:02:52;;;;;;;402.60;383.47;;;8.20;99.90;;;;;;4369118;32;20572;-61
2021/11/15 11:05:21;;;;;;;409.30;390.40;;;8.10;99.90;;;;;;4379365;32;20465;-61
2021/11/15 11:07:50;;;;;;;427.77;407.90;;;8.00;99.90;;;;;;4379225;32;20157;-61
2021/11/15 11:10:19;;;;;;;424.57;404.70;;;8.00;99.90;;;;;;4382561;32;20157;-61
2021/11/15 11:12:57;;;;;;;419.30;399.67;;;8.00;99.90;;;;;;4368423;32;20157;-61
2021/11/15 11:15:32;;;;;;;433.67;413.00;;;8.00;99.90;;;;;;4373882;32;20191;-61
2021/11/15 11:18:13;;;;;;;433.77;413.23;;;8.00;99.90;;;;;;4371476;32;20148;-61
2021/11/15 11:26:59;;;;;;;401.90;383.50;;;8.00;99.90;;;;;;4369016;32;20637;-61
2021/11/15 11:29:30;;;;;;;405.57;386.67;;;8.10;99.90;;;;;;4388759;32;20232;-61
2021/11/15 11:32:00;;;;;;;438.03;417.13;;;7.90;99.90;;;;;;4369360;32;20172;-61
2021/11/15 11:34:28;;;;;;;416.67;397.03;;;8.00;99.90;;;;;;4376549;32;20169;-61
2021/11/15 11:36:55;;;;;;;425.23;405.40;;;8.10;99.90;;;;;;4380906;32;20160;-61
2021/11/15 11:39:24;;;;;;;436.67;415.83;;;8.10;99.90;;;;;;4374608;32;20576;-61
2021/11/15 11:41:56;;;;;;;448.43;427.43;;;8.10;99.90;;;;;;4383614;32;20246;-61
2021/11/15 11:44:25;;;;;;;420.00;400.47;;;8.10;99.90;;;;;;4375507;32;20152;-61
2021/11/15 11:46:53;;;;;;;428.03;408.10;;;8.10;99.90;;;;;;4381384;32;20507;-61
2021/11/15 11:49:24;;;;;;;441.03;420.33;;;8.00;99.90;;;;;;4373997;32;20153;-61
2021/11/15 11:51:57;;;;;;;428.90;408.97;;;8.10;99.90;;;;;;4382438;32;20225;-61
2021/11/15 11:54:28;;;;;;;423.90;404.23;;;8.10;99.90;;;;;;4376908;32;20156;-61
2021/11/15 11:57:00;;;;;;;432.77;412.07;;;8.00;99.90;;;;;;4380343;32;20605;-61
2021/11/15 11:59:28;;;;;;;445.20;424.50;;;7.90;99.90;;;;;;4374368;32;20172;-61
2021/11/15 12:02:00;;;;;;;444.80;423.70;;;7.90;99.90;;;;;;4370629;32;20168;-61
2021/11/15 12:04:27;;;;;;;433.50;413.17;;;7.90;99.90;;;;;;4374687;32;20456;-61
2021/11/15 12:06:55;;;;;;;453.83;431.60;;;7.90;99.90;;;;;;4380191;32;20136;-61
2021/11/15 12:09:25;;;;;;;432.97;412.37;;;8.00;99.90;;;;;;4377703;32;20155;-61
2021/11/15 12:11:59;;;;;;;463.23;440.90;;;8.10;99.90;;;;;;4383175;32;20189;-61
2021/11/15 12:14:35;;;;;;;441.77;420.90;;;7.90;99.90;;;;;;4374198;32;20235;-61
2021/11/15 12:17:04;;;;;;;448.90;427.60;;;7.90;99.90;;;;;;4379704;32;20170;-60
2021/11/15 12:20:10;;;;;;;441.33;419.93;;;8.00;99.90;;;;;;4375798;32;20290;-61
2021/11/15 12:22:57;;;;;;;436.37;415.20;;;8.00;99.90;;;;;;4369623;32;20190;-60
2021/11/15 12:25:26;;;;;;;431.27;410.70;;;7.90;99.90;;;;;;4372563;32;20165;-61
2021/11/15 12:27:56;;;;;;;429.57;408.97;;;8.00;99.90;;;;;;4386086;32;20222;-61
2021/11/15 12:30:26;;;;;;;436.07;415.00;;;8.00;99.90;;;;;;4378025;32;20469;-61
2021/11/15 12:33:24;;;;;;;467.87;444.90;;;8.00;99.90;;;;;;4376659;32;20175;-61
2021/11/15 12:35:53;;;;;;;452.90;431.23;;;8.10;99.90;;;;;;4372654;32;20624;-60